createdAt,value
2023-03-02T01:16:09.513Z,14.70
2023-03-02T01:18:38.703Z,14.43
2023-03-02T01:21:10.792Z,13.07
2023-03-02T01:23:37.535Z,14.18
2023-03-02T01:26:04.326Z,13.85
2023-03-02T01:28:30.924Z,13.93
2023-03-02T01:30:57.386Z,14.50
2023-03-02T01:33:23.856Z,13.73
2023-03-02T01:35:50.379Z,13.32
2023-03-02T01:38:17.004Z,15.05
2023-03-02T01:40:43.644Z,13.30
2023-03-02T01:43:15.667Z,13.27
2023-03-02T01:45:54.570Z,13.82
2023-03-02T01:48:31.535Z,13.32
2023-03-02T01:50:59.113Z,12.27
2023-03-02T01:53:29.444Z,12.75
2023-03-02T01:55:57.139Z,13.55
2023-03-02T01:58:25.684Z,13.27
2023-03-02T02:00:53.172Z,13.07
2023-03-02T02:03:26.261Z,12.82
2023-03-02T02:09:44.188Z,12.23
2023-03-02T02:12:16.822Z,13.40
2023-03-02T02:14:44.043Z,13.23
2023-03-02T02:17:12.268Z,14.25
2023-03-02T02:19:38.649Z,14.38
2023-03-02T02:22:05.180Z,13.00
2023-03-02T02:24:44.010Z,12.98
2023-03-02T02:27:12.762Z,13.25
2023-03-02T02:29:47.162Z,13.82
2023-03-02T02:32:18.831Z,12.45
2023-03-02T02:34:51.384Z,13.77
2023-03-02T02:37:28.926Z,12.77
2023-03-02T02:39:55.896Z,13.57
2023-03-02T02:42:32.982Z,13.45
2023-03-02T02:45:16.718Z,13.00
2023-03-02T02:47:43.644Z,14.38
2023-03-02T02:50:19.170Z,12.30
2023-03-02T02:52:51.599Z,12.98
2023-03-02T04:14:45.580Z,14.80
2023-03-02T04:17:12.011Z,15.57
2023-03-02T04:19:38.650Z,14.18
2023-03-02T04:22:05.241Z,13.95
2023-03-02T04:24:32.085Z,13.75
2023-03-02T04:26:58.769Z,13.82
2023-03-02T04:29:25.562Z,14.13
2023-03-02T04:31:52.039Z,14.25
2023-03-02T04:34:18.549Z,13.05
2023-03-02T04:36:45.571Z,13.75
2023-03-02T04:39:14.887Z,13.65
2023-03-02T04:41:41.626Z,12.80
2023-03-02T04:44:08.058Z,14.50
2023-03-02T04:46:35.373Z,14.88
2023-03-02T04:49:02.051Z,14.27
2023-03-02T04:51:31.836Z,14.48
2023-03-02T04:54:01.434Z,14.40
2023-03-02T04:56:28.361Z,15.13
2023-03-02T04:58:55.155Z,15.02
2023-03-02T05:01:21.805Z,15.63
2023-03-02T05:03:48.788Z,15.85
2023-03-02T05:06:16.172Z,15.55
2023-03-02T05:08:43.257Z,16.05
2023-03-02T05:11:13.686Z,14.05
2023-03-02T05:13:40.138Z,15.63
2023-03-02T05:16:06.890Z,15.63
2023-03-02T05:18:33.324Z,16.20
2023-03-02T05:20:59.780Z,15.75
2023-03-02T05:23:28.537Z,17.20
2023-03-02T05:25:56.040Z,16.58
2023-03-02T05:28:24.980Z,17.52
2023-03-02T05:30:52.150Z,17.95
2023-03-02T05:33:19.057Z,17.27
2023-03-02T05:35:46.131Z,17.65
2023-03-02T05:38:12.684Z,18.30
2023-03-02T05:40:40.074Z,18.80
2023-03-02T05:43:07.050Z,19.38
2023-03-02T05:45:36.731Z,19.23
2023-03-02T05:48:04.343Z,19.88
2023-03-02T05:50:31.063Z,20.73
2023-03-02T05:53:00.049Z,21.40
2023-03-02T05:55:26.873Z,21.40
2023-03-02T05:57:53.338Z,21.98
2023-03-02T06:00:20.842Z,21.33
2023-03-02T06:02:47.846Z,21.75
2023-03-02T06:05:18.689Z,26.63
2023-03-02T06:07:45.638Z,25.40
2023-03-02T06:10:13.439Z,23.27
2023-03-02T06:12:40.705Z,23.88
2023-03-02T06:15:08.643Z,24.00
2023-03-02T06:49:50.181Z,26.27
2023-03-02T06:52:17.244Z,28.08
2023-03-02T06:54:43.753Z,27.27
2023-03-02T06:57:10.709Z,28.70
2023-03-02T06:59:37.208Z,29.60
2023-03-02T07:02:04.135Z,27.60
2023-03-02T07:04:30.883Z,27.67
2023-03-02T07:06:57.418Z,27.05
2023-03-02T07:09:24.417Z,27.52
2023-03-02T07:11:50.936Z,26.77
2023-03-02T07:14:17.387Z,26.77
2023-03-02T07:16:44.069Z,28.98
2023-03-02T07:19:12.934Z,25.58
2023-03-02T07:21:39.724Z,27.45
2023-03-02T07:24:06.557Z,28.70
2023-03-02T07:26:33.216Z,28.73
2023-03-02T07:28:59.934Z,28.42
2023-03-02T07:31:27.460Z,27.65
2023-03-02T07:33:54.043Z,28.50
2023-03-02T07:36:20.552Z,27.48
2023-03-02T07:38:47.024Z,26.75
2023-03-02T07:41:15.430Z,27.60
2023-03-02T07:43:42.067Z,27.33
2023-03-02T07:46:08.599Z,25.75
2023-03-02T07:48:36.795Z,25.90
2023-03-02T07:51:05.136Z,26.10
2023-03-02T07:53:31.997Z,29.65
2023-03-02T07:55:58.606Z,26.20
2023-03-02T07:58:25.144Z,25.15
2023-03-02T08:00:51.638Z,24.33
2023-03-02T08:03:18.080Z,26.70
2023-03-02T08:05:44.616Z,23.73
2023-03-02T08:08:11.068Z,24.42
2023-03-02T08:10:37.600Z,24.58
2023-03-02T08:13:04.942Z,24.25
2023-03-02T08:15:31.404Z,24.90
2023-03-02T08:17:58.066Z,24.23
2023-03-02T08:20:24.776Z,25.10
2023-03-02T08:22:51.801Z,24.35
2023-03-02T08:25:18.568Z,25.38
2023-03-02T08:27:46.109Z,25.23
2023-03-02T08:30:13.470Z,24.50
2023-03-02T08:32:40.404Z,26.38
2023-03-02T08:35:07.310Z,26.17
2023-03-02T08:37:34.583Z,25.15
2023-03-02T08:40:01.203Z,28.10
2023-03-02T08:42:27.662Z,28.42
2023-03-02T08:44:54.099Z,26.42
2023-03-02T08:47:20.565Z,26.65
2023-03-02T08:49:48.275Z,25.40
2023-03-02T08:52:15.274Z,25.38
2023-03-02T08:54:42.101Z,26.15
2023-03-02T08:57:11.873Z,26.65
2023-03-02T08:59:38.542Z,27.75
2023-03-02T09:02:05.265Z,27.27
2023-03-02T09:04:31.946Z,26.70
2023-03-02T09:06:58.383Z,28.23
2023-03-02T09:09:24.900Z,26.77
2023-03-02T09:11:51.346Z,27.02
2023-03-02T09:14:17.784Z,27.65
2023-03-02T09:16:45.430Z,28.42
2023-03-02T09:19:13.769Z,30.20
2023-03-02T09:21:40.210Z,27.95
2023-03-02T09:24:06.911Z,28.42
2023-03-02T09:26:34.011Z,27.98
2023-03-02T09:29:00.799Z,28.80
2023-03-02T09:31:29.830Z,27.60
2023-03-02T09:33:57.163Z,28.73
2023-03-02T09:36:25.452Z,29.10
2023-03-02T09:38:53.185Z,29.35
2023-03-02T09:41:19.696Z,29.35
2023-03-02T09:44:33.396Z,29.77
2023-03-02T09:47:07.927Z,29.85
2023-03-02T09:49:53.757Z,30.65
2023-03-02T09:52:33.630Z,30.02
2023-03-02T09:55:21.951Z,30.95
2023-03-02T09:57:48.833Z,32.20
2023-03-02T10:00:36.712Z,31.13
2023-03-02T10:03:16.747Z,31.02
2023-03-02T10:05:54.209Z,31.63
2023-03-02T10:08:34.200Z,32.05
2023-03-02T10:11:38.069Z,30.90
2023-03-02T10:14:20.411Z,30.23
2023-03-02T10:17:04.519Z,31.33
2023-03-02T10:19:47.679Z,31.02
2023-03-02T10:22:14.080Z,31.70
2023-03-02T10:25:22.234Z,30.02
2023-03-02T10:27:55.974Z,29.90
2023-03-02T10:30:30.980Z,29.95
2023-03-02T10:33:02.983Z,29.17
2023-03-02T10:35:31.695Z,29.52
2023-03-02T10:38:04.473Z,29.40
2023-03-02T10:40:42.703Z,26.98
2023-03-02T10:43:34.580Z,25.42
2023-03-02T10:48:29.028Z,26.13
2023-03-02T10:50:58.337Z,24.08
2023-03-02T10:53:25.127Z,24.63
2023-03-02T10:55:53.427Z,24.35
2023-03-02T10:58:25.891Z,23.65
2023-03-02T11:01:00.771Z,24.20
2023-03-02T11:03:27.947Z,24.15
2023-03-02T11:05:55.389Z,23.23
2023-03-02T11:08:24.487Z,22.73
2023-03-02T11:10:53.821Z,21.50
2023-03-02T11:13:35.733Z,22.23
2023-03-02T11:16:21.509Z,20.92
2023-03-02T11:19:27.034Z,20.85
2023-03-02T11:22:22.224Z,20.83
2023-03-02T11:24:53.172Z,20.40
2023-03-02T11:27:29.851Z,21.00
2023-03-02T11:30:04.572Z,20.58
2023-03-02T11:32:43.186Z,21.48
2023-03-02T11:35:14.600Z,18.70
2023-03-02T11:37:52.630Z,20.10
2023-03-02T11:40:46.125Z,20.75
2023-03-02T11:43:13.758Z,20.50
2023-03-02T11:45:51.297Z,20.48
2023-03-02T11:48:24.174Z,20.63
2023-03-02T11:51:05.605Z,19.75
2023-03-02T11:54:29.484Z,19.38
2023-03-02T11:56:56.156Z,19.45
2023-03-02T11:59:25.753Z,18.88
2023-03-02T12:01:56.842Z,19.05
2023-03-02T12:04:49.287Z,21.17
2023-03-02T12:07:27.276Z,20.67
2023-03-02T12:10:22.380Z,20.17
2023-03-02T12:13:02.371Z,20.13
2023-03-02T12:15:38.987Z,19.63
2023-03-02T12:18:20.560Z,19.33
2023-03-02T12:21:10.240Z,19.08
2023-03-02T12:23:53.381Z,18.67
2023-03-02T12:26:20.066Z,17.48
2023-03-02T12:29:03.759Z,18.73
2023-03-02T12:31:46.505Z,17.52
2023-03-02T12:34:38.078Z,18.27
2023-03-02T12:37:13.936Z,17.20
2023-03-02T12:39:50.703Z,16.77
2023-03-02T12:42:52.547Z,17.67
2023-03-02T12:45:30.032Z,17.63
2023-03-02T12:48:04.771Z,18.60
2023-03-02T12:50:37.546Z,17.67
2023-03-02T12:53:14.108Z,17.05
2023-03-02T12:55:41.041Z,18.38
2023-03-02T12:58:21.870Z,17.77
2023-03-02T13:01:03.059Z,18.52
2023-03-02T13:03:31.634Z,17.75
2023-03-02T13:06:13.387Z,17.42
2023-03-02T13:11:09.134Z,16.45
2023-03-02T13:13:39.365Z,17.42
2023-03-02T13:16:19.439Z,16.58
2023-03-02T13:18:46.532Z,16.75
2023-03-02T13:21:14.951Z,17.60
2023-03-02T13:23:51.669Z,17.98
2023-03-02T13:26:39.747Z,19.52
2023-03-02T13:29:19.248Z,18.60
2023-03-02T13:31:45.827Z,18.70
2023-03-02T13:34:45.207Z,18.23
2023-03-02T13:37:26.797Z,19.42
2023-03-02T13:40:02.109Z,19.25
2023-03-02T13:42:40.590Z,20.40
2023-03-02T13:45:30.204Z,20.23
2023-03-02T13:47:59.543Z,20.05
2023-03-02T13:50:32.224Z,20.90
2023-03-02T13:53:02.483Z,20.75
2023-03-02T13:55:29.489Z,20.70
2023-03-02T13:57:56.156Z,20.00
2023-03-02T14:00:25.876Z,19.08
2023-03-02T14:02:52.346Z,19.00
2023-03-02T14:05:25.523Z,19.73
2023-03-02T14:07:52.115Z,18.92
2023-03-02T14:10:20.480Z,18.88
2023-03-02T14:12:55.682Z,18.38
2023-03-02T14:15:22.265Z,17.40
2023-03-02T14:17:49.352Z,17.27
2023-03-02T14:20:19.882Z,17.30
2023-03-02T14:22:50.694Z,17.70
2023-03-02T14:25:17.374Z,17.45
2023-03-02T14:27:44.156Z,18.60
2023-03-02T14:30:20.037Z,16.75
2023-03-02T14:32:47.148Z,18.02
2023-03-02T14:35:15.976Z,19.63
2023-03-02T14:37:49.831Z,19.75
2023-03-02T14:40:28.261Z,17.63
2023-03-02T14:42:55.398Z,16.73
2023-03-02T14:45:21.954Z,17.38
2023-03-02T14:47:49.089Z,15.52
2023-03-02T14:50:19.272Z,14.23
2023-03-02T14:52:50.072Z,14.10
2023-03-02T14:55:27.084Z,14.55
2023-03-02T14:58:10.716Z,14.63
2023-03-02T15:00:38.736Z,14.77
2023-03-02T15:03:05.371Z,14.88
2023-03-02T15:05:32.134Z,14.45
2023-03-02T15:07:58.968Z,13.68
2023-03-02T15:10:25.618Z,13.80
2023-03-02T15:12:52.379Z,13.85
2023-03-02T15:15:19.027Z,14.98
2023-03-02T15:17:45.593Z,14.30
2023-03-02T15:20:16.694Z,13.98
2023-03-02T15:22:43.630Z,14.60
2023-03-02T15:25:10.841Z,13.48
2023-03-02T15:27:37.544Z,14.05
2023-03-02T15:30:05.388Z,14.43
2023-03-02T15:32:32.145Z,13.15
2023-03-02T15:34:58.644Z,13.55
2023-03-02T15:37:25.131Z,13.75
2023-03-02T15:39:56.156Z,13.95
2023-03-02T15:42:23.616Z,9.35
2023-03-02T15:44:50.285Z,12.38
2023-03-02T15:47:17.144Z,12.93
2023-03-02T15:49:43.677Z,13.13
2023-03-02T15:52:10.333Z,13.25
2023-03-02T15:54:36.794Z,13.00
2023-03-02T15:57:03.472Z,13.43
2023-03-02T15:59:31.657Z,12.85
2023-03-02T16:02:02.360Z,12.80
2023-03-02T16:04:30.692Z,12.95
2023-03-02T16:06:57.585Z,12.18
2023-03-02T16:09:25.537Z,13.15
2023-03-02T16:11:52.889Z,15.13
2023-03-02T16:14:19.443Z,14.48
2023-03-02T16:16:46.704Z,13.93
2023-03-02T16:19:17.217Z,13.02
2023-03-02T16:21:45.656Z,13.00
2023-03-02T16:24:13.200Z,14.23
2023-03-02T16:26:39.762Z,13.68
2023-03-02T16:29:08.086Z,11.95
2023-03-02T16:31:37.722Z,12.68
2023-03-02T16:34:09.033Z,12.98
2023-03-02T16:36:37.593Z,14.02
2023-03-02T16:39:04.950Z,14.82
2023-03-02T16:41:31.635Z,14.55
2023-03-02T16:43:59.494Z,15.13
2023-03-02T16:46:29.324Z,14.48
2023-03-02T16:48:57.325Z,15.93
2023-03-02T16:51:24.210Z,15.18
2023-03-02T16:53:51.011Z,17.77
2023-03-02T16:56:17.583Z,20.15
2023-03-02T16:58:44.154Z,20.42
2023-03-02T17:01:14.816Z,18.52
2023-03-02T17:03:42.708Z,16.33
2023-03-02T17:06:11.675Z,15.13
2023-03-02T17:08:38.722Z,14.43
2023-03-02T17:11:05.806Z,13.23
2023-03-02T17:13:32.435Z,13.48
2023-03-02T17:15:58.975Z,19.05
2023-03-02T17:18:29.296Z,24.60
2023-03-02T17:20:58.041Z,29.50
2023-03-02T17:23:24.957Z,27.95
2023-03-02T17:25:51.472Z,22.50
2023-03-02T17:28:18.011Z,19.48
2023-03-02T17:30:45.300Z,19.17
2023-03-02T17:33:12.145Z,21.10
2023-03-02T17:35:38.749Z,19.65
2023-03-02T17:38:05.815Z,19.38
2023-03-02T17:40:32.892Z,20.67
2023-03-02T17:42:59.558Z,20.50
2023-03-02T17:45:27.576Z,20.05
2023-03-02T17:47:55.547Z,22.50
2023-03-02T17:50:22.992Z,21.80
2023-03-02T17:52:50.024Z,24.52
2023-03-02T17:55:17.082Z,23.98
2023-03-02T17:57:43.524Z,23.70
2023-03-02T18:00:14.397Z,21.70
2023-03-02T18:02:40.984Z,20.08
2023-03-02T18:05:10.022Z,16.92
2023-03-02T18:07:37.073Z,17.35
2023-03-02T18:10:05.144Z,18.13
2023-03-02T18:12:31.676Z,19.25
2023-03-02T18:14:58.106Z,22.30
2023-03-02T18:17:24.758Z,26.75
2023-03-02T18:19:51.313Z,24.05
2023-03-02T18:22:17.804Z,22.88
2023-03-02T18:24:44.350Z,21.33
2023-03-02T18:27:10.787Z,20.02
2023-03-02T18:29:37.371Z,20.45
2023-03-02T18:32:03.946Z,21.00
2023-03-02T18:34:30.574Z,20.95
2023-03-02T18:36:57.064Z,21.98
2023-03-02T18:39:23.604Z,21.60
2023-03-02T18:41:50.070Z,23.77
2023-03-02T18:44:16.558Z,23.23
2023-03-02T18:46:43.088Z,21.73
2023-03-02T18:49:09.660Z,22.05
2023-03-02T18:51:36.197Z,20.55
2023-03-02T18:54:02.671Z,20.20
2023-03-02T18:56:29.230Z,18.75
2023-03-02T18:58:55.736Z,18.58
2023-03-02T19:01:22.431Z,22.08
2023-03-02T19:03:49.262Z,23.33
2023-03-02T19:06:16.515Z,24.30
2023-03-02T19:08:43.389Z,25.63
2023-03-02T19:11:11.724Z,25.27
2023-03-02T19:13:38.376Z,26.02
2023-03-02T19:16:05.398Z,24.58
2023-03-02T19:18:32.026Z,25.98
2023-03-02T19:20:58.673Z,24.98
2023-03-02T19:23:25.237Z,18.25
2023-03-02T19:25:52.353Z,17.05
2023-03-02T19:28:19.120Z,17.48
2023-03-02T19:30:45.623Z,23.92
2023-03-02T19:33:12.157Z,25.67
2023-03-02T19:35:39.096Z,26.48
2023-03-02T19:38:06.850Z,24.20
2023-03-02T19:40:34.587Z,20.35
2023-03-02T19:43:01.710Z,21.42
2023-03-02T19:45:31.405Z,22.25
2023-03-02T19:47:59.461Z,20.42
2023-03-02T19:50:28.006Z,20.17
2023-03-02T19:52:54.948Z,18.45
2023-03-02T19:55:24.213Z,17.98
2023-03-02T19:57:56.351Z,18.35
2023-03-02T20:00:24.252Z,18.65
2023-03-02T20:02:50.795Z,18.95
2023-03-02T20:05:17.701Z,16.15
2023-03-02T20:07:44.605Z,15.70
2023-03-02T20:10:21.693Z,15.95
2023-03-02T20:12:48.115Z,14.88
2023-03-02T20:15:14.621Z,15.52
2023-03-02T20:17:41.111Z,15.98
2023-03-02T20:20:08.102Z,17.73
2023-03-02T20:22:35.188Z,18.05
2023-03-02T20:25:01.845Z,17.35
2023-03-02T20:27:28.325Z,17.13
2023-03-02T20:29:54.845Z,16.63
2023-03-02T20:32:21.605Z,15.85
2023-03-02T20:34:48.172Z,16.20
2023-03-02T20:37:15.770Z,16.80
2023-03-02T20:39:45.171Z,17.35
2023-03-02T20:42:12.213Z,15.80
2023-03-02T20:44:38.814Z,15.90
2023-03-02T20:47:08.428Z,16.63
2023-03-02T20:49:37.728Z,16.02
2023-03-02T20:52:05.545Z,15.88
2023-03-02T20:54:35.786Z,16.08
2023-03-02T20:57:02.707Z,18.30
2023-03-02T20:59:29.227Z,18.25
2023-03-02T21:01:55.791Z,20.25
2023-03-02T21:04:22.907Z,20.05
2023-03-02T21:06:51.752Z,18.20
2023-03-02T21:09:18.675Z,18.20
2023-03-02T21:11:46.239Z,17.33
2023-03-02T21:14:14.224Z,18.55
2023-03-02T21:16:43.146Z,17.17
2023-03-02T21:19:13.710Z,16.88
2023-03-02T21:21:42.391Z,15.97
2023-03-02T21:24:11.594Z,17.02
2023-03-02T21:26:38.857Z,15.20
2023-03-02T21:29:05.878Z,16.90
2023-03-02T21:31:33.027Z,17.65
2023-03-02T21:34:00.622Z,16.55
2023-03-02T21:36:28.074Z,16.90
2023-03-02T21:38:54.745Z,15.85
2023-03-02T21:41:21.591Z,16.80
2023-03-02T21:43:48.745Z,17.65
2023-03-02T21:46:18.410Z,17.15
2023-03-02T21:48:45.915Z,18.50
2023-03-02T21:51:13.814Z,17.73
2023-03-02T21:53:40.734Z,19.38
2023-03-02T21:56:08.168Z,19.25
2023-03-02T21:58:35.095Z,19.00
2023-03-02T22:01:01.673Z,18.75
2023-03-02T22:03:28.140Z,18.30
2023-03-02T22:05:54.561Z,18.17
2023-03-02T22:08:21.653Z,18.80
2023-03-02T22:10:50.224Z,18.92
2023-03-02T22:13:22.246Z,18.98
2023-03-02T22:15:51.112Z,18.80
2023-03-02T22:18:19.966Z,18.15
2023-03-02T22:20:49.244Z,19.85
2023-03-02T22:23:22.071Z,20.90
2023-03-02T22:25:54.010Z,20.67
2023-03-02T22:28:25.987Z,20.88
2023-03-02T22:30:57.946Z,22.33
2023-03-02T22:33:28.130Z,21.00
2023-03-02T22:36:02.121Z,21.92
2023-03-02T22:38:30.752Z,20.27
2023-03-02T22:40:57.514Z,19.83
2023-03-02T22:43:33.007Z,20.80
2023-03-02T22:46:08.782Z,21.00
2023-03-02T22:48:36.705Z,20.60
2023-03-02T22:51:14.058Z,20.33
2023-03-02T22:53:46.745Z,22.02
2023-03-02T22:56:28.366Z,21.60
2023-03-02T23:01:38.495Z,20.25
2023-03-02T23:04:08.012Z,22.25
2023-03-02T23:06:47.205Z,20.90
2023-03-02T23:09:17.970Z,20.45
2023-03-02T23:11:45.305Z,22.05
2023-03-02T23:14:21.145Z,21.35
2023-03-02T23:17:08.082Z,21.23
2023-03-02T23:19:34.657Z,21.70
2023-03-02T23:22:01.125Z,22.70
2023-03-02T23:24:27.636Z,24.10
2023-03-02T23:26:54.195Z,22.30
2023-03-02T23:29:21.351Z,22.02
2023-03-02T23:31:48.980Z,22.58
2023-03-02T23:34:15.965Z,22.70
2023-03-02T23:36:42.701Z,22.30
2023-03-02T23:39:09.838Z,24.05
2023-03-02T23:41:37.476Z,24.10
2023-03-02T23:44:05.500Z,25.15
2023-03-02T23:46:32.485Z,25.50
2023-03-02T23:48:59.359Z,26.33
2023-03-02T23:51:26.235Z,27.00
2023-03-02T23:53:53.873Z,27.85
2023-03-02T23:56:20.941Z,28.15
2023-03-02T23:58:48.073Z,26.92
